createdAt,value
2019-01-29T00:00:46.649Z,17.43
2019-01-29T00:01:47.215Z,17.42
2019-01-29T00:02:48.475Z,17.42
2019-01-29T00:03:46.677Z,17.42
2019-01-29T00:04:49.337Z,17.42
2019-01-29T00:05:46.707Z,17.41
2019-01-29T00:06:46.662Z,17.4
2019-01-29T00:07:46.739Z,17.4
2019-01-29T00:08:46.684Z,17.39
2019-01-29T00:09:46.671Z,17.39
2019-01-29T00:10:46.761Z,17.39
2019-01-29T00:11:46.726Z,17.38
2019-01-29T00:12:46.661Z,17.37
2019-01-29T00:13:46.896Z,17.36
2019-01-29T00:14:47.303Z,17.36
2019-01-29T00:15:46.621Z,17.35
2019-01-29T00:16:46.813Z,17.35
2019-01-29T00:17:46.770Z,17.34
2019-01-29T00:18:46.718Z,17.34
2019-01-29T00:19:46.665Z,17.33
2019-01-29T00:20:46.732Z,17.32
2019-01-29T00:21:46.735Z,17.32
2019-01-29T00:22:46.861Z,17.31
2019-01-29T00:23:46.498Z,17.31
2019-01-29T00:24:46.798Z,17.31
2019-01-29T00:25:47.381Z,17.3
2019-01-29T00:26:46.990Z,17.29
2019-01-29T00:27:46.867Z,17.29
2019-01-29T00:28:46.637Z,17.29
2019-01-29T00:29:46.615Z,17.29
2019-01-29T00:30:46.657Z,17.27
2019-01-29T00:31:46.654Z,17.28
2019-01-29T00:32:46.707Z,17.27
2019-01-29T00:33:48.465Z,17.26
2019-01-29T00:34:46.695Z,17.26
2019-01-29T00:35:47.727Z,17.24
2019-01-29T00:36:46.522Z,17.25
2019-01-29T00:37:47.403Z,17.24
2019-01-29T00:38:47.155Z,17.23
2019-01-29T00:39:46.567Z,17.23
2019-01-29T00:40:46.561Z,17.23
2019-01-29T00:41:46.735Z,17.23
2019-01-29T00:42:46.411Z,17.22
2019-01-29T00:43:47.005Z,17.22
2019-01-29T00:44:46.734Z,17.21
2019-01-29T00:45:46.735Z,17.2
2019-01-29T00:46:46.498Z,17.19
2019-01-29T00:47:46.916Z,17.2
2019-01-29T00:48:46.940Z,17.18
2019-01-29T00:49:46.683Z,17.18
2019-01-29T00:50:46.875Z,17.18
2019-01-29T00:51:46.735Z,17.18
2019-01-29T00:52:46.444Z,17.17
2019-01-29T00:53:47.062Z,17.17
2019-01-29T00:54:47.066Z,17.17
2019-01-29T00:55:47.001Z,17.17
2019-01-29T00:56:46.690Z,17.17
2019-01-29T00:57:46.509Z,17.17
2019-01-29T00:58:46.777Z,17.16
2019-01-29T00:59:47.124Z,17.16
2019-01-29T01:00:46.611Z,17.14
2019-01-29T01:01:46.832Z,17.14
2019-01-29T01:02:46.703Z,17.14
2019-01-29T01:03:46.499Z,17.14
2019-01-29T01:04:46.770Z,17.12
2019-01-29T01:05:46.962Z,17.13
2019-01-29T01:06:46.863Z,17.12
2019-01-29T01:07:46.652Z,17.12
2019-01-29T01:08:46.670Z,17.11
2019-01-29T01:09:46.897Z,17.11
2019-01-29T01:10:46.994Z,17.1
2019-01-29T01:11:46.990Z,17.1
2019-01-29T01:12:46.807Z,17.1
2019-01-29T01:13:46.992Z,17.1
2019-01-29T01:14:46.419Z,17.09
2019-01-29T01:15:46.926Z,17.1
2019-01-29T01:16:46.935Z,17.08
2019-01-29T01:17:46.438Z,17.08
2019-01-29T01:18:46.788Z,17.08
2019-01-29T01:19:47.071Z,17.07
2019-01-29T01:20:46.469Z,17.07
2019-01-29T01:21:46.902Z,17.06
2019-01-29T01:22:51.664Z,17.05
2019-01-29T01:23:46.648Z,17.04
2019-01-29T01:24:46.905Z,17.04
2019-01-29T01:25:46.671Z,17.04
2019-01-29T01:26:46.914Z,17.04
2019-01-29T01:27:46.658Z,17.03
2019-01-29T01:28:46.827Z,17.02
2019-01-29T01:29:46.693Z,17.02
2019-01-29T01:30:46.717Z,17.02
2019-01-29T01:31:46.497Z,17.01
2019-01-29T01:32:46.782Z,17
2019-01-29T01:33:46.499Z,17
2019-01-29T01:34:46.815Z,17
2019-01-29T01:35:46.660Z,17
2019-01-29T01:36:47.076Z,17
2019-01-29T01:37:46.564Z,16.99
2019-01-29T01:38:46.553Z,16.99
2019-01-29T01:39:46.571Z,16.98
2019-01-29T01:40:46.680Z,16.98
2019-01-29T01:41:47.038Z,16.98
2019-01-29T01:42:46.440Z,16.98
2019-01-29T01:43:46.539Z,16.98
2019-01-29T01:44:46.936Z,16.97
2019-01-29T01:45:46.461Z,16.97
2019-01-29T01:46:46.632Z,16.97
2019-01-29T01:47:46.730Z,16.96
2019-01-29T01:48:46.464Z,16.95
2019-01-29T01:49:46.779Z,16.95
2019-01-29T01:50:46.456Z,16.95
2019-01-29T01:51:46.668Z,16.94
2019-01-29T01:52:46.894Z,16.94
2019-01-29T01:53:48.551Z,16.94
2019-01-29T01:54:46.706Z,16.93
2019-01-29T01:55:46.703Z,16.92
2019-01-29T01:56:46.708Z,16.93
2019-01-29T01:57:47.005Z,16.92
2019-01-29T01:58:46.372Z,16.92
2019-01-29T01:59:46.763Z,16.92
2019-01-29T02:00:46.445Z,16.91
2019-01-29T02:01:46.577Z,16.91
2019-01-29T02:02:46.877Z,16.91
2019-01-29T02:03:46.879Z,16.91
2019-01-29T02:04:46.652Z,16.9
2019-01-29T02:05:46.877Z,16.91
2019-01-29T02:06:46.992Z,16.9
2019-01-29T02:07:46.811Z,16.89
2019-01-29T02:08:46.668Z,16.89
2019-01-29T02:09:46.840Z,16.88
2019-01-29T02:10:46.498Z,16.88
2019-01-29T02:11:47.139Z,16.86
2019-01-29T02:12:46.476Z,16.86
2019-01-29T02:13:46.595Z,16.86
2019-01-29T02:14:46.754Z,16.86
2019-01-29T02:15:46.950Z,16.86
2019-01-29T02:16:47.337Z,16.85
2019-01-29T02:17:46.369Z,16.85
2019-01-29T02:18:46.530Z,16.85
2019-01-29T02:19:47.912Z,16.85
2019-01-29T02:20:46.402Z,16.84
2019-01-29T02:21:46.987Z,16.85
2019-01-29T02:22:46.519Z,16.85
2019-01-29T02:23:46.385Z,16.83
2019-01-29T02:24:47.144Z,16.83
2019-01-29T02:25:46.740Z,16.82
2019-01-29T02:26:46.567Z,16.84
2019-01-29T02:27:46.855Z,16.84
2019-01-29T02:28:49.310Z,16.84
2019-01-29T02:29:46.716Z,16.83
2019-01-29T02:30:46.669Z,16.81
2019-01-29T02:31:46.424Z,16.81
2019-01-29T02:32:46.923Z,16.81
2019-01-29T02:33:46.628Z,16.82
2019-01-29T02:34:46.685Z,16.81
2019-01-29T02:35:46.655Z,16.79
2019-01-29T02:36:46.768Z,16.8
2019-01-29T02:37:46.615Z,16.8
2019-01-29T02:38:46.917Z,16.79
2019-01-29T02:39:46.611Z,16.79
2019-01-29T02:40:46.638Z,16.78
2019-01-29T02:41:46.599Z,16.79
2019-01-29T02:42:46.615Z,16.79
2019-01-29T02:43:46.978Z,16.78
2019-01-29T02:44:46.521Z,16.77
2019-01-29T02:45:46.488Z,16.76
2019-01-29T02:46:48.016Z,16.77
2019-01-29T02:47:46.727Z,16.77
2019-01-29T02:48:46.560Z,16.76
2019-01-29T02:49:47.096Z,16.77
2019-01-29T02:50:46.373Z,16.75
2019-01-29T02:51:46.790Z,16.75
2019-01-29T02:52:46.543Z,16.75
2019-01-29T02:53:46.425Z,16.74
2019-01-29T02:54:46.690Z,16.74
2019-01-29T02:55:47.562Z,16.75
2019-01-29T02:56:46.547Z,16.74
2019-01-29T02:57:46.845Z,16.73
2019-01-29T02:58:47.085Z,16.73
2019-01-29T02:59:46.538Z,16.73
2019-01-29T03:00:46.974Z,16.73
2019-01-29T03:01:46.659Z,16.73
2019-01-29T03:02:46.790Z,16.72
2019-01-29T03:03:47.010Z,16.71
2019-01-29T03:04:46.462Z,16.71
2019-01-29T03:05:46.686Z,16.71
2019-01-29T03:06:47.129Z,16.71
2019-01-29T03:07:46.988Z,16.71
2019-01-29T03:08:46.784Z,16.71
2019-01-29T03:09:46.511Z,16.7
2019-01-29T03:10:46.516Z,16.7
2019-01-29T03:11:46.881Z,16.68
2019-01-29T03:12:46.705Z,16.68
2019-01-29T03:13:46.911Z,16.68
2019-01-29T03:14:46.652Z,16.68
2019-01-29T03:15:47.195Z,16.67
2019-01-29T03:16:46.573Z,16.67
2019-01-29T03:17:46.868Z,16.67
2019-01-29T03:18:47.320Z,16.67
2019-01-29T03:19:46.511Z,16.66
2019-01-29T03:20:46.626Z,16.67
2019-01-29T03:21:46.513Z,16.67
2019-01-29T03:22:46.641Z,16.66
2019-01-29T03:23:47.057Z,16.66
2019-01-29T03:24:46.729Z,16.65
2019-01-29T03:25:46.830Z,16.66
2019-01-29T03:26:46.716Z,16.65
2019-01-29T03:27:46.341Z,16.65
2019-01-29T03:28:46.777Z,16.65
2019-01-29T03:29:46.489Z,16.64
2019-01-29T03:30:46.805Z,16.63
2019-01-29T03:31:46.924Z,16.63
2019-01-29T03:32:46.633Z,16.63
2019-01-29T03:33:46.863Z,16.63
2019-01-29T03:34:46.712Z,16.62
2019-01-29T03:35:46.737Z,16.62
2019-01-29T03:36:46.768Z,16.62
2019-01-29T03:37:46.468Z,16.62
2019-01-29T03:38:46.928Z,16.61
2019-01-29T03:39:46.708Z,16.62
2019-01-29T03:40:46.641Z,16.62
2019-01-29T03:41:46.695Z,16.61
2019-01-29T03:42:46.729Z,16.6
2019-01-29T03:43:48.156Z,16.6
2019-01-29T03:44:46.603Z,16.6
2019-01-29T03:45:46.693Z,16.6
2019-01-29T03:46:46.479Z,16.6
2019-01-29T03:47:46.697Z,16.6
2019-01-29T03:48:46.439Z,16.6
2019-01-29T03:49:46.465Z,16.6
2019-01-29T03:50:46.633Z,16.59
2019-01-29T03:51:46.323Z,16.59
2019-01-29T03:52:46.542Z,16.58
2019-01-29T03:53:48.453Z,16.58
2019-01-29T03:54:46.629Z,16.58
2019-01-29T03:55:46.573Z,16.58
2019-01-29T03:56:46.650Z,16.58
2019-01-29T03:57:46.554Z,16.57
2019-01-29T03:58:48.433Z,16.55
2019-01-29T03:59:46.462Z,16.56
2019-01-29T04:00:46.393Z,16.56
2019-01-29T04:01:46.519Z,16.56
2019-01-29T04:02:46.417Z,16.55
2019-01-29T04:03:47.530Z,16.55
2019-01-29T04:04:46.834Z,16.56
2019-01-29T04:05:46.367Z,16.55
2019-01-29T04:06:46.702Z,16.54
2019-01-29T04:07:46.852Z,16.55
2019-01-29T04:08:46.885Z,16.54
2019-01-29T04:09:46.553Z,16.54
2019-01-29T04:10:46.631Z,16.53
2019-01-29T04:11:46.864Z,16.53
2019-01-29T04:12:46.758Z,16.53
2019-01-29T04:13:46.971Z,16.53
2019-01-29T04:14:46.792Z,16.52
2019-01-29T04:15:46.815Z,16.52
2019-01-29T04:16:46.708Z,16.51
2019-01-29T04:17:46.701Z,16.52
2019-01-29T04:18:46.618Z,16.52
2019-01-29T04:19:46.755Z,16.52
2019-01-29T04:20:46.772Z,16.52
2019-01-29T04:21:46.918Z,16.51
2019-01-29T04:22:46.468Z,16.51
2019-01-29T04:23:48.288Z,16.5
2019-01-29T04:24:46.877Z,16.51
2019-01-29T04:25:46.403Z,16.5
2019-01-29T04:26:46.739Z,16.5
2019-01-29T04:27:46.702Z,16.5
2019-01-29T04:28:46.890Z,16.49
2019-01-29T04:29:46.637Z,16.5
2019-01-29T04:30:47.297Z,16.49
2019-01-29T04:31:46.459Z,16.48
2019-01-29T04:32:46.863Z,16.48
2019-01-29T04:33:46.818Z,16.48
2019-01-29T04:34:47.236Z,16.47
2019-01-29T04:35:47.614Z,16.47
2019-01-29T04:36:46.827Z,16.47
2019-01-29T04:37:47.000Z,16.47
2019-01-29T04:38:46.533Z,16.47
2019-01-29T04:39:46.848Z,16.47
2019-01-29T04:40:46.991Z,16.47
2019-01-29T04:41:46.398Z,16.47
2019-01-29T04:42:46.513Z,16.47
2019-01-29T04:43:46.980Z,16.48
2019-01-29T04:44:46.412Z,16.48
2019-01-29T04:45:46.500Z,16.48
2019-01-29T04:46:46.729Z,16.48
2019-01-29T04:47:46.442Z,16.48
2019-01-29T04:48:46.721Z,16.49
2019-01-29T04:49:46.767Z,16.5
2019-01-29T04:50:46.549Z,16.51
2019-01-29T04:51:46.579Z,16.51
2019-01-29T04:52:46.756Z,16.52
2019-01-29T04:53:46.775Z,16.52
2019-01-29T04:54:46.770Z,16.53
2019-01-29T04:55:46.856Z,16.53
2019-01-29T04:56:46.696Z,16.54
2019-01-29T04:57:47.153Z,16.55
2019-01-29T04:58:46.877Z,16.57
2019-01-29T04:59:46.465Z,16.58
2019-01-29T05:00:47.933Z,16.59
2019-01-29T05:01:46.488Z,16.6
2019-01-29T05:02:46.883Z,16.6
2019-01-29T05:03:46.737Z,16.62
2019-01-29T05:04:46.498Z,16.63
2019-01-29T05:05:46.508Z,16.65
2019-01-29T05:06:46.353Z,16.66
2019-01-29T05:07:46.613Z,16.67
2019-01-29T05:08:46.872Z,16.68
2019-01-29T05:09:46.663Z,16.7
2019-01-29T05:10:46.707Z,16.72
2019-01-29T05:11:46.432Z,16.74
2019-01-29T05:12:46.494Z,16.75
2019-01-29T05:13:46.721Z,16.77
2019-01-29T05:14:46.680Z,16.79
2019-01-29T05:15:46.604Z,16.81
2019-01-29T05:16:46.696Z,16.83
2019-01-29T05:17:46.490Z,16.84
2019-01-29T05:18:46.362Z,16.85
2019-01-29T05:19:46.704Z,16.88
2019-01-29T05:20:46.570Z,16.9
2019-01-29T05:21:46.744Z,16.92
2019-01-29T05:22:46.769Z,16.93
2019-01-29T05:23:46.494Z,16.94
2019-01-29T05:24:46.844Z,16.96
2019-01-29T05:25:46.397Z,16.98
2019-01-29T05:26:46.695Z,17
2019-01-29T05:27:46.851Z,17.02
2019-01-29T05:28:46.517Z,17.04
2019-01-29T05:29:46.438Z,17.06
2019-01-29T05:30:46.831Z,17.07
2019-01-29T05:31:46.241Z,17.1
2019-01-29T05:32:46.785Z,17.1
2019-01-29T05:33:46.843Z,17.12
2019-01-29T05:34:46.459Z,17.13
2019-01-29T05:35:46.526Z,17.15
2019-01-29T05:36:46.533Z,17.17
2019-01-29T05:37:46.365Z,17.18
2019-01-29T05:38:46.901Z,17.2
2019-01-29T05:39:46.690Z,17.21
2019-01-29T05:40:46.913Z,17.23
2019-01-29T05:41:46.733Z,17.24
2019-01-29T05:42:46.793Z,17.26
2019-01-29T05:43:47.105Z,17.28
2019-01-29T05:44:46.902Z,17.29
2019-01-29T05:45:47.224Z,17.29
2019-01-29T05:46:47.442Z,17.31
2019-01-29T05:47:47.556Z,17.32
2019-01-29T05:48:46.698Z,17.34
2019-01-29T05:49:46.616Z,17.36
2019-01-29T05:50:46.478Z,17.36
2019-01-29T05:51:47.039Z,17.37
2019-01-29T05:52:48.618Z,17.39
2019-01-29T05:53:46.836Z,17.4
2019-01-29T05:54:46.455Z,17.42
2019-01-29T05:55:47.143Z,17.42
2019-01-29T05:56:47.751Z,17.43
2019-01-29T05:57:47.086Z,17.44
2019-01-29T05:58:48.002Z,17.46
2019-01-29T05:59:46.803Z,17.48
2019-01-29T06:00:48.493Z,17.48
2019-01-29T06:01:47.002Z,17.5
2019-01-29T06:02:49.006Z,17.5
2019-01-29T06:03:46.928Z,17.51
2019-01-29T06:04:46.759Z,17.52
2019-01-29T06:05:46.528Z,17.54
2019-01-29T06:06:48.485Z,17.54
2019-01-29T06:07:47.164Z,17.55
2019-01-29T06:08:46.449Z,17.57
2019-01-29T06:09:46.660Z,17.58
2019-01-29T06:10:46.745Z,17.59
2019-01-29T06:11:46.424Z,17.61
2019-01-29T06:12:46.771Z,17.63
2019-01-29T06:13:46.669Z,17.65
2019-01-29T06:14:47.546Z,17.67
2019-01-29T06:15:46.622Z,17.68
2019-01-29T06:16:46.393Z,17.7
2019-01-29T06:17:46.821Z,17.72
2019-01-29T06:18:46.609Z,17.73
2019-01-29T06:19:46.472Z,17.75
2019-01-29T06:20:46.850Z,17.76
2019-01-29T06:21:46.591Z,17.79
2019-01-29T06:22:46.613Z,17.82
2019-01-29T06:23:46.798Z,17.8
2019-01-29T06:24:47.261Z,17.81
2019-01-29T06:25:47.293Z,17.66
2019-01-29T06:26:46.416Z,17.4
2019-01-29T06:27:46.351Z,17.18
2019-01-29T06:28:46.450Z,17.06
2019-01-29T06:29:46.769Z,16.9
2019-01-29T06:30:46.730Z,16.77
2019-01-29T06:31:46.712Z,16.63
2019-01-29T06:32:46.819Z,16.58
2019-01-29T06:33:46.911Z,16.45
2019-01-29T06:34:46.752Z,16.57
2019-01-29T06:35:46.445Z,16.66
2019-01-29T06:36:46.755Z,16.73
2019-01-29T06:37:46.475Z,16.81
2019-01-29T06:38:46.765Z,16.87
2019-01-29T06:39:46.968Z,16.92
2019-01-29T06:40:46.765Z,16.98
2019-01-29T06:41:46.803Z,17.03
2019-01-29T06:42:46.698Z,17.07
2019-01-29T06:43:46.481Z,17.11
2019-01-29T06:44:46.314Z,17.16
2019-01-29T06:45:46.426Z,17.19
2019-01-29T06:46:47.107Z,17.22
2019-01-29T06:47:46.602Z,17.25
2019-01-29T06:48:46.316Z,17.28
2019-01-29T06:49:46.536Z,17.3
2019-01-29T06:50:47.404Z,17.34
2019-01-29T06:51:46.356Z,17.37
2019-01-29T06:52:46.469Z,17.41
2019-01-29T06:53:46.761Z,17.42
2019-01-29T06:54:46.350Z,17.46
2019-01-29T06:55:46.798Z,17.48
2019-01-29T06:56:47.406Z,17.5
2019-01-29T06:57:56.359Z,17.53
2019-01-29T06:58:46.652Z,17.55
2019-01-29T06:59:46.429Z,17.57
2019-01-29T07:00:46.501Z,17.6
2019-01-29T07:01:46.325Z,17.61
2019-01-29T07:02:46.385Z,17.63
2019-01-29T07:03:46.769Z,17.65
2019-01-29T07:04:47.250Z,17.67
2019-01-29T07:05:46.566Z,17.68
2019-01-29T07:06:46.869Z,17.71
2019-01-29T07:07:46.368Z,17.72
2019-01-29T07:08:46.453Z,17.73
2019-01-29T07:09:46.393Z,17.74
2019-01-29T07:10:47.111Z,17.76
2019-01-29T07:11:46.828Z,17.77
2019-01-29T07:12:46.901Z,17.79
2019-01-29T07:13:46.810Z,17.8
2019-01-29T07:14:46.459Z,17.81
2019-01-29T07:15:46.508Z,17.85
2019-01-29T07:16:46.448Z,17.85
2019-01-29T07:17:46.564Z,17.86
2019-01-29T07:18:46.743Z,17.88
2019-01-29T07:19:46.355Z,17.89
2019-01-29T07:20:47.071Z,17.9
2019-01-29T07:21:46.443Z,17.91
2019-01-29T07:22:46.766Z,17.92
2019-01-29T07:23:46.602Z,17.93
2019-01-29T07:24:46.323Z,17.94
2019-01-29T07:25:46.782Z,17.96
2019-01-29T07:26:46.740Z,17.98
2019-01-29T07:27:46.709Z,17.98
2019-01-29T07:28:47.035Z,17.97
2019-01-29T07:29:46.592Z,17.96
2019-01-29T07:30:46.430Z,17.99
2019-01-29T07:31:46.830Z,18.01
2019-01-29T07:32:46.637Z,18.01
2019-01-29T07:33:46.299Z,18.03
2019-01-29T07:34:46.798Z,18.04
2019-01-29T07:35:48.444Z,18.06
2019-01-29T07:36:46.940Z,18.09
2019-01-29T07:37:46.469Z,18.09
2019-01-29T07:38:46.899Z,18.1
2019-01-29T07:39:46.460Z,18.1
2019-01-29T07:40:46.797Z,18.1
2019-01-29T07:41:46.812Z,18.11
2019-01-29T07:42:46.463Z,18.12
2019-01-29T07:43:46.816Z,18.12
2019-01-29T07:44:46.853Z,18.15
2019-01-29T07:45:46.266Z,18.15
2019-01-29T07:46:46.942Z,18.16
2019-01-29T07:47:46.347Z,18.17
2019-01-29T07:48:46.977Z,18.19
2019-01-29T07:49:46.505Z,18.19
2019-01-29T07:50:46.673Z,18.2
2019-01-29T07:51:46.507Z,18.24
2019-01-29T07:52:46.441Z,18.25
2019-01-29T07:53:46.824Z,18.24
2019-01-29T07:54:51.669Z,18.27
2019-01-29T07:55:46.715Z,18.26
2019-01-29T07:56:47.283Z,18.27
2019-01-29T07:57:46.734Z,18.28
2019-01-29T07:58:47.019Z,18.29
2019-01-29T07:59:46.670Z,18.29
2019-01-29T08:00:46.853Z,18.3
2019-01-29T08:01:47.766Z,18.31
2019-01-29T08:02:46.613Z,18.32
2019-01-29T08:03:47.079Z,18.34
2019-01-29T08:04:47.683Z,18.35
2019-01-29T08:05:47.082Z,18.36
2019-01-29T08:06:46.592Z,18.36
2019-01-29T08:07:47.097Z,18.37
2019-01-29T08:08:46.414Z,18.39
2019-01-29T08:09:46.807Z,18.4
2019-01-29T08:10:46.730Z,18.41
2019-01-29T08:11:46.896Z,18.42
2019-01-29T08:12:46.566Z,18.42
2019-01-29T08:13:46.678Z,18.43
2019-01-29T08:14:46.373Z,18.44
2019-01-29T08:15:46.757Z,18.46
2019-01-29T08:16:46.745Z,18.46
2019-01-29T08:17:46.414Z,18.47
2019-01-29T08:18:46.882Z,18.47
2019-01-29T08:19:46.678Z,18.48
2019-01-29T08:20:46.791Z,18.48
2019-01-29T08:21:46.800Z,18.5
2019-01-29T08:22:46.600Z,18.5
2019-01-29T08:23:46.403Z,18.51
2019-01-29T08:25:02.439Z,18.53
2019-01-29T08:25:48.444Z,18.54
2019-01-29T08:26:46.926Z,18.54
2019-01-29T08:27:46.417Z,18.55
2019-01-29T08:28:46.331Z,18.54
2019-01-29T08:29:46.667Z,18.54
2019-01-29T08:30:46.417Z,18.56
2019-01-29T08:31:48.360Z,18.57
2019-01-29T08:32:46.885Z,18.57
2019-01-29T08:33:46.248Z,18.59
2019-01-29T08:34:46.493Z,18.6
2019-01-29T08:35:46.631Z,18.6
2019-01-29T08:36:46.702Z,18.6
2019-01-29T08:37:47.110Z,18.61
2019-01-29T08:38:47.230Z,18.63
2019-01-29T08:39:46.665Z,18.62
2019-01-29T08:40:46.459Z,18.62
2019-01-29T08:41:46.731Z,18.63
2019-01-29T08:42:46.477Z,18.65
2019-01-29T08:43:46.550Z,18.65
2019-01-29T08:44:46.756Z,18.65
2019-01-29T08:45:46.543Z,18.66
2019-01-29T08:46:46.293Z,18.66
2019-01-29T08:47:46.315Z,18.67
2019-01-29T08:48:46.262Z,18.67
2019-01-29T08:49:47.092Z,18.68
2019-01-29T08:50:46.367Z,18.69
2019-01-29T08:51:46.813Z,18.7
2019-01-29T08:52:46.645Z,18.69
2019-01-29T08:53:46.315Z,18.72
2019-01-29T08:54:46.467Z,18.72
2019-01-29T08:55:46.466Z,18.71
2019-01-29T08:56:46.297Z,18.72
2019-01-29T08:57:46.449Z,18.72
2019-01-29T08:58:46.518Z,18.73
2019-01-29T08:59:46.570Z,18.73
2019-01-29T09:00:46.850Z,18.75
2019-01-29T09:01:46.552Z,18.74
2019-01-29T09:02:48.369Z,18.78
2019-01-29T09:03:46.311Z,18.76
2019-01-29T09:04:47.073Z,18.74
2019-01-29T09:05:46.738Z,18.73
2019-01-29T09:06:46.730Z,18.73
2019-01-29T09:07:46.481Z,18.72
2019-01-29T09:08:46.383Z,18.72
2019-01-29T09:09:46.369Z,18.72
2019-01-29T09:10:46.737Z,18.72
2019-01-29T09:11:46.963Z,18.71
2019-01-29T09:12:46.501Z,18.71
2019-01-29T09:13:46.713Z,18.75
2019-01-29T09:14:46.631Z,18.74
2019-01-29T09:15:46.833Z,18.74
2019-01-29T09:16:46.984Z,18.75
2019-01-29T09:17:46.697Z,18.76
2019-01-29T09:18:46.483Z,18.76
2019-01-29T09:19:47.111Z,18.77
2019-01-29T09:20:46.721Z,18.77
2019-01-29T09:21:46.342Z,18.77
2019-01-29T09:22:47.037Z,18.78
2019-01-29T09:23:46.518Z,18.78
2019-01-29T09:24:46.721Z,18.78
2019-01-29T09:25:46.835Z,18.79
2019-01-29T09:26:46.956Z,18.79
2019-01-29T09:27:46.482Z,18.79
2019-01-29T09:28:46.756Z,18.8
2019-01-29T09:29:46.349Z,18.8
2019-01-29T09:30:46.523Z,18.8
2019-01-29T09:31:46.778Z,18.81
2019-01-29T09:32:47.090Z,18.82
2019-01-29T09:33:47.356Z,18.81
2019-01-29T09:34:46.906Z,18.82
2019-01-29T09:35:46.925Z,18.82
2019-01-29T09:36:46.850Z,18.83
2019-01-29T09:37:46.763Z,18.83
2019-01-29T09:38:46.361Z,18.84
2019-01-29T09:39:46.486Z,18.83
2019-01-29T09:40:48.451Z,18.84
2019-01-29T09:41:46.836Z,18.84
2019-01-29T09:42:47.384Z,18.86
2019-01-29T09:43:46.559Z,18.85
2019-01-29T09:44:48.295Z,18.86
2019-01-29T09:45:46.455Z,18.86
2019-01-29T09:46:48.126Z,18.86
2019-01-29T09:47:46.259Z,18.85
2019-01-29T09:48:47.015Z,18.86
2019-01-29T09:49:46.278Z,18.9
2019-01-29T09:50:46.541Z,18.91
2019-01-29T09:51:46.581Z,18.93
2019-01-29T09:52:46.395Z,18.91
2019-01-29T09:53:46.582Z,18.91
2019-01-29T09:54:46.856Z,18.9
2019-01-29T09:55:46.548Z,18.9
2019-01-29T09:56:46.601Z,18.91
2019-01-29T09:57:46.931Z,18.92
2019-01-29T09:58:46.663Z,18.93
2019-01-29T09:59:46.478Z,18.92
2019-01-29T10:00:47.106Z,18.91
2019-01-29T10:01:48.138Z,18.93
2019-01-29T10:02:46.822Z,18.92
2019-01-29T10:03:46.387Z,18.92
2019-01-29T10:04:46.649Z,18.93
2019-01-29T10:05:46.308Z,18.94
2019-01-29T10:06:46.639Z,18.95
2019-01-29T10:07:46.343Z,18.96
2019-01-29T10:08:48.391Z,18.95
2019-01-29T10:09:46.746Z,18.97
2019-01-29T10:10:46.466Z,18.97
2019-01-29T10:11:46.882Z,18.96
2019-01-29T10:12:46.635Z,18.97
2019-01-29T10:13:46.499Z,18.97
2019-01-29T10:14:47.221Z,18.97
2019-01-29T10:15:46.717Z,18.97
2019-01-29T10:16:46.550Z,18.98
2019-01-29T10:17:46.464Z,18.99
2019-01-29T10:18:47.039Z,18.99
2019-01-29T10:19:46.357Z,18.99
2019-01-29T10:20:46.899Z,19
2019-01-29T10:21:46.377Z,19
2019-01-29T10:22:46.448Z,19.02
2019-01-29T10:23:46.591Z,19.01
2019-01-29T10:24:47.373Z,19.03
2019-01-29T10:25:47.026Z,19.03
2019-01-29T10:26:47.825Z,19.02
2019-01-29T10:27:46.497Z,19.04
2019-01-29T10:28:46.869Z,19.03
2019-01-29T10:29:47.116Z,19.04
2019-01-29T10:30:46.322Z,19.04
2019-01-29T10:31:46.375Z,19.04
2019-01-29T10:32:46.729Z,19.05
2019-01-29T10:33:46.698Z,19.05
2019-01-29T10:34:46.531Z,19.06
2019-01-29T10:35:46.377Z,19.06
2019-01-29T10:36:46.632Z,19.06
2019-01-29T10:37:46.660Z,19.06
2019-01-29T10:38:46.702Z,19.07
2019-01-29T10:39:46.983Z,19.07
2019-01-29T10:40:47.177Z,19.08
2019-01-29T10:41:46.449Z,19.09
2019-01-29T10:42:48.329Z,19.09
2019-01-29T10:43:48.032Z,19.1
2019-01-29T10:44:46.598Z,19.09
2019-01-29T10:45:46.742Z,19.11
2019-01-29T10:46:46.561Z,19.1
2019-01-29T10:47:46.717Z,19.1
2019-01-29T10:48:46.465Z,19.11
2019-01-29T10:49:47.341Z,19.11
2019-01-29T10:50:46.309Z,19.13
2019-01-29T10:51:46.517Z,19.13
2019-01-29T10:52:46.620Z,19.13
2019-01-29T10:53:46.884Z,19.13
2019-01-29T10:54:46.709Z,19.14
2019-01-29T10:55:47.991Z,19.14
2019-01-29T10:56:47.532Z,19.14
2019-01-29T10:57:46.378Z,19.14
2019-01-29T10:58:46.912Z,19.14
2019-01-29T10:59:46.484Z,19.16
2019-01-29T11:00:46.376Z,19.15
2019-01-29T11:01:46.447Z,19.15
2019-01-29T11:02:46.749Z,19.15
2019-01-29T11:03:46.243Z,19.15
2019-01-29T11:04:49.458Z,19.16
2019-01-29T11:05:47.356Z,19.18
2019-01-29T11:06:47.362Z,19.18
2019-01-29T11:07:48.346Z,19.17
2019-01-29T11:08:46.299Z,19.18
2019-01-29T11:09:48.713Z,19.18
2019-01-29T11:10:46.821Z,19.19
2019-01-29T11:11:47.081Z,19.2
2019-01-29T11:12:47.112Z,19.2
2019-01-29T11:13:46.245Z,19.21
2019-01-29T11:14:46.559Z,19.21
2019-01-29T11:15:46.705Z,19.21
2019-01-29T11:16:46.351Z,19.21
2019-01-29T11:17:46.381Z,19.21
2019-01-29T11:18:46.630Z,19.21
2019-01-29T11:19:47.588Z,19.23
2019-01-29T11:20:47.797Z,19.23
2019-01-29T11:21:46.294Z,19.22
2019-01-29T11:22:46.419Z,19.24
2019-01-29T11:23:46.443Z,19.23
2019-01-29T11:24:46.425Z,19.24
2019-01-29T11:25:56.510Z,19.24
2019-01-29T11:26:46.530Z,19.25
2019-01-29T11:27:47.002Z,19.26
2019-01-29T11:28:47.069Z,19.27
2019-01-29T11:29:47.101Z,19.26
2019-01-29T11:30:46.337Z,19.26
2019-01-29T11:31:47.392Z,19.26
2019-01-29T11:32:46.498Z,19.27
2019-01-29T11:33:48.467Z,19.27
2019-01-29T11:34:46.431Z,19.27
2019-01-29T11:35:46.916Z,19.27
2019-01-29T11:36:47.351Z,19.27
2019-01-29T11:37:47.129Z,19.28
2019-01-29T11:38:46.273Z,19.28
2019-01-29T11:39:46.501Z,19.28
2019-01-29T11:40:46.660Z,19.29
2019-01-29T11:41:46.747Z,19.29
2019-01-29T11:42:47.160Z,19.3
2019-01-29T11:43:46.856Z,19.3
2019-01-29T11:44:46.361Z,19.29
2019-01-29T11:45:46.867Z,19.3
2019-01-29T11:46:47.173Z,19.3
2019-01-29T11:47:46.381Z,19.31
2019-01-29T11:48:46.745Z,19.31
2019-01-29T11:49:46.590Z,19.31
2019-01-29T11:50:46.494Z,19.32
2019-01-29T11:51:47.078Z,19.31
2019-01-29T11:52:46.459Z,19.32
2019-01-29T11:53:46.810Z,19.32
2019-01-29T11:54:47.510Z,19.33
2019-01-29T11:55:46.398Z,19.33
2019-01-29T11:56:47.074Z,19.34
2019-01-29T11:57:47.239Z,19.34
2019-01-29T11:58:48.203Z,19.32
2019-01-29T11:59:46.757Z,19.31
2019-01-29T12:00:46.248Z,19.3
2019-01-29T12:01:46.554Z,19.29
2019-01-29T12:02:46.427Z,19.29
2019-01-29T12:03:46.603Z,19.28
2019-01-29T12:04:46.305Z,19.27
2019-01-29T12:05:46.821Z,19.29
2019-01-29T12:06:46.243Z,19.3
2019-01-29T12:07:46.362Z,19.29
2019-01-29T12:08:46.875Z,19.29
2019-01-29T12:09:46.749Z,19.29
2019-01-29T12:10:46.747Z,19.29
2019-01-29T12:11:46.361Z,19.3
2019-01-29T12:12:47.692Z,19.31
2019-01-29T12:13:46.419Z,19.29
2019-01-29T12:14:46.377Z,19.28
2019-01-29T12:15:46.699Z,19.27
2019-01-29T12:16:46.795Z,19.27
2019-01-29T12:17:46.808Z,19.27
2019-01-29T12:18:46.725Z,19.26
2019-01-29T12:19:46.247Z,19.26
2019-01-29T12:20:46.398Z,19.27
2019-01-29T12:21:46.847Z,19.27
2019-01-29T12:22:46.341Z,19.27
2019-01-29T12:23:46.450Z,19.26
2019-01-29T12:24:46.489Z,19.26
2019-01-29T12:25:46.737Z,19.25
2019-01-29T12:26:46.306Z,19.25
2019-01-29T12:27:46.778Z,19.25
2019-01-29T12:28:46.383Z,19.25
2019-01-29T12:29:46.304Z,19.25
2019-01-29T12:30:46.502Z,19.25
2019-01-29T12:31:46.381Z,19.24
2019-01-29T12:32:46.450Z,19.23
2019-01-29T12:33:46.502Z,19.23
2019-01-29T12:34:46.378Z,19.24
2019-01-29T12:35:46.390Z,19.26
2019-01-29T12:36:47.567Z,19.27
2019-01-29T12:37:46.434Z,19.27
2019-01-29T12:38:46.538Z,19.27
2019-01-29T12:39:46.448Z,19.28
2019-01-29T12:40:46.422Z,19.29
2019-01-29T12:41:46.523Z,19.3
2019-01-29T12:42:46.487Z,19.3
2019-01-29T12:43:46.468Z,19.32
2019-01-29T12:44:46.207Z,19.32
2019-01-29T12:45:48.632Z,19.33
2019-01-29T12:46:46.345Z,19.33
2019-01-29T12:47:46.170Z,19.31
2019-01-29T12:48:46.300Z,19.18
2019-01-29T12:49:46.360Z,19.17
2019-01-29T12:50:46.399Z,19.19
2019-01-29T12:51:47.356Z,19.2
2019-01-29T12:52:46.659Z,19.21
2019-01-29T12:53:46.193Z,19.21
2019-01-29T12:54:46.768Z,19.22
2019-01-29T12:55:46.227Z,19.23
2019-01-29T12:56:46.286Z,19.26